sensor_id;sensor_type;location;lat;lon;timestamp;temperature;humidity
15131;DHT22;7666;50.920;4.628;2023-09-18T00:00:30;19.30;99.90
15131;DHT22;7666;50.920;4.628;2023-09-18T00:03:17;19.30;99.90
15131;DHT22;7666;50.920;4.628;2023-09-18T00:06:04;19.20;99.90
15131;DHT22;7666;50.920;4.628;2023-09-18T00:08:50;19.20;99.90
15131;DHT22;7666;50.920;4.628;2023-09-18T00:11:37;19.30;99.90
15131;DHT22;7666;50.920;4.628;2023-09-18T00:14:24;19.30;99.90
15131;DHT22;7666;50.920;4.628;2023-09-18T00:17:11;19.30;99.90
15131;DHT22;7666;50.920;4.628;2023-09-18T00:19:57;19.40;99.90
15131;DHT22;7666;50.920;4.628;2023-09-18T00:22:43;19.40;99.90
15131;DHT22;7666;50.920;4.628;2023-09-18T00:25:29;19.40;99.90
15131;DHT22;7666;50.920;4.628;2023-09-18T00:28:16;19.50;99.90
15131;DHT22;7666;50.920;4.628;2023-09-18T00:31:02;19.50;99.90
15131;DHT22;7666;50.920;4.628;2023-09-18T00:33:48;19.40;99.90
15131;DHT22;7666;50.920;4.628;2023-09-18T00:36:34;19.40;99.90
15131;DHT22;7666;50.920;4.628;2023-09-18T00:39:20;19.30;99.90
15131;DHT22;7666;50.920;4.628;2023-09-18T00:42:06;19.40;99.90
15131;DHT22;7666;50.920;4.628;2023-09-18T00:44:52;19.60;99.90
15131;DHT22;7666;50.920;4.628;2023-09-18T00:47:38;19.70;99.90
15131;DHT22;7666;50.920;4.628;2023-09-18T00:50:24;19.70;99.90
15131;DHT22;7666;50.920;4.628;2023-09-18T00:53:14;19.80;99.90
15131;DHT22;7666;50.920;4.628;2023-09-18T00:56:03;19.80;99.90
15131;DHT22;7666;50.920;4.628;2023-09-18T00:58:50;19.80;99.90
15131;DHT22;7666;50.920;4.628;2023-09-18T01:01:38;19.80;99.90
15131;DHT22;7666;50.920;4.628;2023-09-18T01:04:25;19.90;99.90
15131;DHT22;7666;50.920;4.628;2023-09-18T01:07:12;19.90;99.90
15131;DHT22;7666;50.920;4.628;2023-09-18T01:09:59;19.90;99.90
15131;DHT22;7666;50.920;4.628;2023-09-18T01:12:51;20.00;99.90
15131;DHT22;7666;50.920;4.628;2023-09-18T01:15:54;20.00;99.90
15131;DHT22;7666;50.920;4.628;2023-09-18T01:18:50;20.00;99.90
15131;DHT22;7666;50.920;4.628;2023-09-18T01:21:36;20.00;99.90
15131;DHT22;7666;50.920;4.628;2023-09-18T01:24:22;20.10;99.90
15131;DHT22;7666;50.920;4.628;2023-09-18T01:27:13;20.10;99.90
15131;DHT22;7666;50.920;4.628;2023-09-18T01:30:00;20.20;99.90
15131;DHT22;7666;50.920;4.628;2023-09-18T01:32:46;20.20;99.90
15131;DHT22;7666;50.920;4.628;2023-09-18T01:35:33;20.20;99.90
15131;DHT22;7666;50.920;4.628;2023-09-18T01:38:19;20.20;99.90
15131;DHT22;7666;50.920;4.628;2023-09-18T01:41:06;20.20;99.90
15131;DHT22;7666;50.920;4.628;2023-09-18T01:43:52;20.20;99.90
15131;DHT22;7666;50.920;4.628;2023-09-18T01:46:38;20.10;99.90
15131;DHT22;7666;50.920;4.628;2023-09-18T01:52:15;20.10;99.90
15131;DHT22;7666;50.920;4.628;2023-09-18T01:55:02;20.10;99.90
15131;DHT22;7666;50.920;4.628;2023-09-18T01:57:50;20.10;99.90
15131;DHT22;7666;50.920;4.628;2023-09-18T02:00:36;20.00;99.90
15131;DHT22;7666;50.920;4.628;2023-09-18T02:03:22;20.00;99.90
15131;DHT22;7666;50.920;4.628;2023-09-18T02:06:08;20.00;99.90
15131;DHT22;7666;50.920;4.628;2023-09-18T02:08:56;20.00;99.90
15131;DHT22;7666;50.920;4.628;2023-09-18T02:11:45;20.00;99.90
15131;DHT22;7666;50.920;4.628;2023-09-18T02:14:31;20.00;99.90
15131;DHT22;7666;50.920;4.628;2023-09-18T02:17:17;20.00;99.90
15131;DHT22;7666;50.920;4.628;2023-09-18T02:20:05;20.00;99.90
15131;DHT22;7666;50.920;4.628;2023-09-18T02:22:57;20.00;99.90
15131;DHT22;7666;50.920;4.628;2023-09-18T02:25:43;20.00;99.90
15131;DHT22;7666;50.920;4.628;2023-09-18T02:28:29;20.00;99.90
15131;DHT22;7666;50.920;4.628;2023-09-18T02:31:14;20.00;99.90
15131;DHT22;7666;50.920;4.628;2023-09-18T02:34:00;19.90;99.90
15131;DHT22;7666;50.920;4.628;2023-09-18T02:36:46;19.90;99.90
15131;DHT22;7666;50.920;4.628;2023-09-18T02:39:33;19.90;99.90
15131;DHT22;7666;50.920;4.628;2023-09-18T02:42:19;19.80;99.90
15131;DHT22;7666;50.920;4.628;2023-09-18T02:45:05;19.80;99.90
15131;DHT22;7666;50.920;4.628;2023-09-18T02:47:51;19.90;99.90
15131;DHT22;7666;50.920;4.628;2023-09-18T02:50:37;19.90;99.90
15131;DHT22;7666;50.920;4.628;2023-09-18T02:53:24;19.80;99.90
15131;DHT22;7666;50.920;4.628;2023-09-18T02:56:10;19.90;99.90
15131;DHT22;7666;50.920;4.628;2023-09-18T02:58:56;19.90;99.90
15131;DHT22;7666;50.920;4.628;2023-09-18T03:01:42;19.80;99.90
15131;DHT22;7666;50.920;4.628;2023-09-18T03:04:29;19.80;99.90
15131;DHT22;7666;50.920;4.628;2023-09-18T03:07:15;19.80;99.90
15131;DHT22;7666;50.920;4.628;2023-09-18T03:10:02;19.80;99.90
15131;DHT22;7666;50.920;4.628;2023-09-18T03:12:48;19.70;99.90
15131;DHT22;7666;50.920;4.628;2023-09-18T03:15:35;19.70;99.90
15131;DHT22;7666;50.920;4.628;2023-09-18T03:18:21;19.70;99.90
15131;DHT22;7666;50.920;4.628;2023-09-18T03:21:07;19.70;99.90
15131;DHT22;7666;50.920;4.628;2023-09-18T03:23:53;19.70;99.90
15131;DHT22;7666;50.920;4.628;2023-09-18T03:26:39;19.70;99.90
15131;DHT22;7666;50.920;4.628;2023-09-18T03:29:25;19.70;99.90
15131;DHT22;7666;50.920;4.628;2023-09-18T03:32:11;19.70;99.90
15131;DHT22;7666;50.920;4.628;2023-09-18T03:34:58;19.70;99.90
15131;DHT22;7666;50.920;4.628;2023-09-18T03:37:53;19.70;99.90
15131;DHT22;7666;50.920;4.628;2023-09-18T03:40:42;19.70;99.90
15131;DHT22;7666;50.920;4.628;2023-09-18T03:43:29;19.70;99.90
15131;DHT22;7666;50.920;4.628;2023-09-18T03:46:15;19.70;99.90
15131;DHT22;7666;50.920;4.628;2023-09-18T03:49:01;19.70;99.90
15131;DHT22;7666;50.920;4.628;2023-09-18T03:51:47;19.70;99.90
15131;DHT22;7666;50.920;4.628;2023-09-18T03:54:33;19.70;99.90
15131;DHT22;7666;50.920;4.628;2023-09-18T03:57:18;19.70;99.90
15131;DHT22;7666;50.920;4.628;2023-09-18T04:00:05;19.70;99.90
15131;DHT22;7666;50.920;4.628;2023-09-18T04:02:53;19.70;99.90
15131;DHT22;7666;50.920;4.628;2023-09-18T04:05:39;19.60;99.90
15131;DHT22;7666;50.920;4.628;2023-09-18T04:08:25;19.70;99.90
15131;DHT22;7666;50.920;4.628;2023-09-18T04:11:11;19.70;99.90
15131;DHT22;7666;50.920;4.628;2023-09-18T04:14:01;19.70;99.90
15131;DHT22;7666;50.920;4.628;2023-09-18T04:16:49;19.70;99.90
15131;DHT22;7666;50.920;4.628;2023-09-18T04:19:34;19.70;99.90
15131;DHT22;7666;50.920;4.628;2023-09-18T04:22:21;19.70;99.90
15131;DHT22;7666;50.920;4.628;2023-09-18T04:25:07;19.70;99.90
15131;DHT22;7666;50.920;4.628;2023-09-18T04:27:53;19.70;99.90
15131;DHT22;7666;50.920;4.628;2023-09-18T04:30:39;19.70;99.90
15131;DHT22;7666;50.920;4.628;2023-09-18T04:33:26;19.70;99.90
15131;DHT22;7666;50.920;4.628;2023-09-18T04:36:14;19.70;99.90
15131;DHT22;7666;50.920;4.628;2023-09-18T04:39:00;19.70;99.90
15131;DHT22;7666;50.920;4.628;2023-09-18T04:41:46;19.70;99.90
15131;DHT22;7666;50.920;4.628;2023-09-18T04:44:32;19.60;99.90
15131;DHT22;7666;50.920;4.628;2023-09-18T04:47:19;19.60;99.90
15131;DHT22;7666;50.920;4.628;2023-09-18T04:50:05;19.60;99.90
15131;DHT22;7666;50.920;4.628;2023-09-18T04:52:52;19.50;99.90
15131;DHT22;7666;50.920;4.628;2023-09-18T04:55:41;19.50;99.90
15131;DHT22;7666;50.920;4.628;2023-09-18T04:58:27;19.50;99.90
15131;DHT22;7666;50.920;4.628;2023-09-18T05:01:13;19.40;99.90
15131;DHT22;7666;50.920;4.628;2023-09-18T05:03:59;19.40;99.90
15131;DHT22;7666;50.920;4.628;2023-09-18T05:06:45;19.30;99.90
15131;DHT22;7666;50.920;4.628;2023-09-18T05:09:31;19.30;99.90
15131;DHT22;7666;50.920;4.628;2023-09-18T05:12:18;19.30;99.90
15131;DHT22;7666;50.920;4.628;2023-09-18T05:15:04;19.20;99.90
15131;DHT22;7666;50.920;4.628;2023-09-18T05:17:50;19.20;99.90
15131;DHT22;7666;50.920;4.628;2023-09-18T05:20:40;19.20;99.90
15131;DHT22;7666;50.920;4.628;2023-09-18T05:23:26;19.20;99.90
15131;DHT22;7666;50.920;4.628;2023-09-18T05:26:12;19.20;99.90
15131;DHT22;7666;50.920;4.628;2023-09-18T05:28:58;19.10;99.90
15131;DHT22;7666;50.920;4.628;2023-09-18T05:31:44;19.10;99.90
15131;DHT22;7666;50.920;4.628;2023-09-18T05:34:31;19.10;99.90
15131;DHT22;7666;50.920;4.628;2023-09-18T05:37:17;19.10;99.90
15131;DHT22;7666;50.920;4.628;2023-09-18T05:40:05;19.10;99.90
15131;DHT22;7666;50.920;4.628;2023-09-18T05:42:53;19.10;99.90
15131;DHT22;7666;50.920;4.628;2023-09-18T05:45:39;19.00;99.90
15131;DHT22;7666;50.920;4.628;2023-09-18T05:48:26;19.00;99.90
15131;DHT22;7666;50.920;4.628;2023-09-18T05:51:11;19.00;99.90
15131;DHT22;7666;50.920;4.628;2023-09-18T05:53:57;19.00;99.90
15131;DHT22;7666;50.920;4.628;2023-09-18T05:56:44;18.90;99.90
15131;DHT22;7666;50.920;4.628;2023-09-18T05:59:30;18.90;99.90
15131;DHT22;7666;50.920;4.628;2023-09-18T06:02:16;18.90;99.90
15131;DHT22;7666;50.920;4.628;2023-09-18T06:05:02;18.90;99.90
15131;DHT22;7666;50.920;4.628;2023-09-18T06:07:52;19.00;99.90
15131;DHT22;7666;50.920;4.628;2023-09-18T06:10:38;18.90;99.90
15131;DHT22;7666;50.920;4.628;2023-09-18T06:13:25;18.90;99.90
15131;DHT22;7666;50.920;4.628;2023-09-18T06:16:11;18.90;99.90
15131;DHT22;7666;50.920;4.628;2023-09-18T06:18:57;18.90;99.90
15131;DHT22;7666;50.920;4.628;2023-09-18T06:21:45;18.90;99.90
15131;DHT22;7666;50.920;4.628;2023-09-18T06:24:31;19.00;99.90
15131;DHT22;7666;50.920;4.628;2023-09-18T06:27:17;19.00;99.90
15131;DHT22;7666;50.920;4.628;2023-09-18T06:30:05;19.00;99.90
15131;DHT22;7666;50.920;4.628;2023-09-18T06:32:51;19.00;99.90
15131;DHT22;7666;50.920;4.628;2023-09-18T06:35:38;19.00;99.90
15131;DHT22;7666;50.920;4.628;2023-09-18T06:38:25;19.00;99.90
15131;DHT22;7666;50.920;4.628;2023-09-18T06:41:11;19.00;99.90
15131;DHT22;7666;50.920;4.628;2023-09-18T06:43:57;19.00;99.90
15131;DHT22;7666;50.920;4.628;2023-09-18T06:46:43;19.00;99.90
15131;DHT22;7666;50.920;4.628;2023-09-18T06:49:29;19.10;99.90
15131;DHT22;7666;50.920;4.628;2023-09-18T06:52:16;19.00;99.90
15131;DHT22;7666;50.920;4.628;2023-09-18T06:55:02;19.10;99.90
15131;DHT22;7666;50.920;4.628;2023-09-18T06:57:48;19.10;99.90
15131;DHT22;7666;50.920;4.628;2023-09-18T07:00:37;19.10;99.90
15131;DHT22;7666;50.920;4.628;2023-09-18T07:03:25;19.10;99.90
15131;DHT22;7666;50.920;4.628;2023-09-18T07:06:10;19.20;99.90
15131;DHT22;7666;50.920;4.628;2023-09-18T07:08:56;19.20;99.90
15131;DHT22;7666;50.920;4.628;2023-09-18T07:11:42;19.20;99.90
15131;DHT22;7666;50.920;4.628;2023-09-18T07:14:29;19.20;99.90
15131;DHT22;7666;50.920;4.628;2023-09-18T07:17:16;19.20;99.90
15131;DHT22;7666;50.920;4.628;2023-09-18T07:20:02;19.20;99.90
15131;DHT22;7666;50.920;4.628;2023-09-18T07:22:59;19.30;99.90
15131;DHT22;7666;50.920;4.628;2023-09-18T07:25:47;19.30;99.90
15131;DHT22;7666;50.920;4.628;2023-09-18T07:28:33;19.30;99.90
15131;DHT22;7666;50.920;4.628;2023-09-18T07:31:20;19.40;99.90
15131;DHT22;7666;50.920;4.628;2023-09-18T07:34:06;19.40;99.90
15131;DHT22;7666;50.920;4.628;2023-09-18T07:36:52;19.40;99.90
15131;DHT22;7666;50.920;4.628;2023-09-18T07:39:40;19.40;99.90
15131;DHT22;7666;50.920;4.628;2023-09-18T07:42:29;19.40;99.90
15131;DHT22;7666;50.920;4.628;2023-09-18T07:45:15;19.60;99.90
15131;DHT22;7666;50.920;4.628;2023-09-18T07:48:01;20.20;99.90
15131;DHT22;7666;50.920;4.628;2023-09-18T07:50:47;20.70;99.90
15131;DHT22;7666;50.920;4.628;2023-09-18T07:53:35;21.10;99.90
15131;DHT22;7666;50.920;4.628;2023-09-18T07:56:21;21.40;99.90
15131;DHT22;7666;50.920;4.628;2023-09-18T07:59:07;21.60;99.90
15131;DHT22;7666;50.920;4.628;2023-09-18T08:01:55;21.80;99.90
15131;DHT22;7666;50.920;4.628;2023-09-18T08:04:41;22.00;99.90
15131;DHT22;7666;50.920;4.628;2023-09-18T08:07:28;22.10;99.90
15131;DHT22;7666;50.920;4.628;2023-09-18T08:10:14;22.30;99.90
15131;DHT22;7666;50.920;4.628;2023-09-18T08:13:00;22.40;99.90
15131;DHT22;7666;50.920;4.628;2023-09-18T08:15:46;22.30;99.90
15131;DHT22;7666;50.920;4.628;2023-09-18T08:18:33;22.20;99.90
15131;DHT22;7666;50.920;4.628;2023-09-18T08:21:20;22.20;99.90
15131;DHT22;7666;50.920;4.628;2023-09-18T08:24:06;22.40;99.90
15131;DHT22;7666;50.920;4.628;2023-09-18T08:26:52;22.40;99.90
15131;DHT22;7666;50.920;4.628;2023-09-18T08:29:39;22.50;99.90
15131;DHT22;7666;50.920;4.628;2023-09-18T08:32:25;22.60;99.90
15131;DHT22;7666;50.920;4.628;2023-09-18T08:35:11;22.80;99.90
15131;DHT22;7666;50.920;4.628;2023-09-18T08:37:57;22.90;99.90
15131;DHT22;7666;50.920;4.628;2023-09-18T08:40:43;22.90;99.90
15131;DHT22;7666;50.920;4.628;2023-09-18T08:43:29;22.80;99.90
15131;DHT22;7666;50.920;4.628;2023-09-18T08:46:17;22.70;99.90
15131;DHT22;7666;50.920;4.628;2023-09-18T08:49:04;22.40;99.90
15131;DHT22;7666;50.920;4.628;2023-09-18T08:51:51;22.30;99.90
15131;DHT22;7666;50.920;4.628;2023-09-18T08:54:39;22.20;99.90
15131;DHT22;7666;50.920;4.628;2023-09-18T08:57:26;22.10;99.90
15131;DHT22;7666;50.920;4.628;2023-09-18T09:00:13;21.90;99.90
15131;DHT22;7666;50.920;4.628;2023-09-18T09:03:03;21.80;99.90
15131;DHT22;7666;50.920;4.628;2023-09-18T09:05:50;21.90;99.90
15131;DHT22;7666;50.920;4.628;2023-09-18T09:08:36;21.90;99.90
15131;DHT22;7666;50.920;4.628;2023-09-18T09:11:22;22.00;99.90
15131;DHT22;7666;50.920;4.628;2023-09-18T09:14:13;21.90;99.90
15131;DHT22;7666;50.920;4.628;2023-09-18T09:17:04;21.90;99.90
15131;DHT22;7666;50.920;4.628;2023-09-18T09:19:50;22.00;99.90
15131;DHT22;7666;50.920;4.628;2023-09-18T09:22:37;22.00;99.90
15131;DHT22;7666;50.920;4.628;2023-09-18T09:25:26;21.90;99.90
15131;DHT22;7666;50.920;4.628;2023-09-18T09:28:13;21.90;99.90
15131;DHT22;7666;50.920;4.628;2023-09-18T09:31:02;21.80;99.90
15131;DHT22;7666;50.920;4.628;2023-09-18T09:33:52;21.70;99.90
15131;DHT22;7666;50.920;4.628;2023-09-18T09:36:54;21.80;99.90
15131;DHT22;7666;50.920;4.628;2023-09-18T09:39:49;21.70;99.90
15131;DHT22;7666;50.920;4.628;2023-09-18T09:42:40;21.70;99.90
15131;DHT22;7666;50.920;4.628;2023-09-18T09:45:31;21.80;99.90
15131;DHT22;7666;50.920;4.628;2023-09-18T09:48:21;21.90;99.90
15131;DHT22;7666;50.920;4.628;2023-09-18T09:51:07;21.90;99.90
15131;DHT22;7666;50.920;4.628;2023-09-18T09:53:54;21.90;99.90
15131;DHT22;7666;50.920;4.628;2023-09-18T09:56:48;21.90;99.90
15131;DHT22;7666;50.920;4.628;2023-09-18T09:59:36;21.90;99.90
15131;DHT22;7666;50.920;4.628;2023-09-18T10:02:22;21.80;99.90
15131;DHT22;7666;50.920;4.628;2023-09-18T10:05:09;21.90;99.90
15131;DHT22;7666;50.920;4.628;2023-09-18T10:07:58;21.90;99.90
15131;DHT22;7666;50.920;4.628;2023-09-18T10:11:05;21.90;99.90
15131;DHT22;7666;50.920;4.628;2023-09-18T10:13:57;21.70;99.90
15131;DHT22;7666;50.920;4.628;2023-09-18T10:16:49;21.80;99.90
15131;DHT22;7666;50.920;4.628;2023-09-18T10:19:40;21.80;99.90
15131;DHT22;7666;50.920;4.628;2023-09-18T10:22:39;21.60;99.90
15131;DHT22;7666;50.920;4.628;2023-09-18T10:25:29;21.60;99.90
15131;DHT22;7666;50.920;4.628;2023-09-18T10:28:17;21.60;99.90
15131;DHT22;7666;50.920;4.628;2023-09-18T10:31:04;21.80;99.90
15131;DHT22;7666;50.920;4.628;2023-09-18T10:33:52;22.00;99.90
15131;DHT22;7666;50.920;4.628;2023-09-18T10:36:41;22.20;99.90
15131;DHT22;7666;50.920;4.628;2023-09-18T10:39:29;22.30;99.90
15131;DHT22;7666;50.920;4.628;2023-09-18T10:42:16;22.60;99.90
15131;DHT22;7666;50.920;4.628;2023-09-18T10:45:05;22.40;99.90
15131;DHT22;7666;50.920;4.628;2023-09-18T10:47:53;22.30;99.90
15131;DHT22;7666;50.920;4.628;2023-09-18T10:50:39;22.30;99.90
15131;DHT22;7666;50.920;4.628;2023-09-18T10:53:27;22.10;99.90
15131;DHT22;7666;50.920;4.628;2023-09-18T10:56:15;22.30;99.90
15131;DHT22;7666;50.920;4.628;2023-09-18T10:59:03;22.70;99.90
15131;DHT22;7666;50.920;4.628;2023-09-18T11:01:51;22.80;99.90
15131;DHT22;7666;50.920;4.628;2023-09-18T11:04:41;23.00;99.90
15131;DHT22;7666;50.920;4.628;2023-09-18T11:07:28;23.00;99.90
15131;DHT22;7666;50.920;4.628;2023-09-18T11:10:26;22.80;99.90
15131;DHT22;7666;50.920;4.628;2023-09-18T11:13:31;23.10;99.90
15131;DHT22;7666;50.920;4.628;2023-09-18T11:19:08;23.30;99.90
15131;DHT22;7666;50.920;4.628;2023-09-18T11:22:07;23.50;99.90
15131;DHT22;7666;50.920;4.628;2023-09-18T11:25:34;23.80;99.90
15131;DHT22;7666;50.920;4.628;2023-09-18T11:28:25;23.90;99.90
15131;DHT22;7666;50.920;4.628;2023-09-18T11:31:11;24.00;99.90
15131;DHT22;7666;50.920;4.628;2023-09-18T11:33:57;24.20;99.90
15131;DHT22;7666;50.920;4.628;2023-09-18T11:36:43;24.40;99.90
15131;DHT22;7666;50.920;4.628;2023-09-18T11:39:37;24.40;99.90
15131;DHT22;7666;50.920;4.628;2023-09-18T11:42:23;24.30;99.90
15131;DHT22;7666;50.920;4.628;2023-09-18T11:45:16;24.40;99.90
15131;DHT22;7666;50.920;4.628;2023-09-18T11:48:04;24.00;99.90
15131;DHT22;7666;50.920;4.628;2023-09-18T11:50:52;24.00;99.90
15131;DHT22;7666;50.920;4.628;2023-09-18T11:53:40;23.90;99.90
15131;DHT22;7666;50.920;4.628;2023-09-18T11:56:30;23.80;99.90
15131;DHT22;7666;50.920;4.628;2023-09-18T11:59:16;23.90;99.90
15131;DHT22;7666;50.920;4.628;2023-09-18T12:02:05;24.00;99.90
15131;DHT22;7666;50.920;4.628;2023-09-18T12:04:54;24.10;99.90
15131;DHT22;7666;50.920;4.628;2023-09-18T12:07:43;24.00;99.90
15131;DHT22;7666;50.920;4.628;2023-09-18T12:10:30;24.00;99.90
15131;DHT22;7666;50.920;4.628;2023-09-18T12:13:17;23.90;99.90
15131;DHT22;7666;50.920;4.628;2023-09-18T12:16:04;24.00;99.90
15131;DHT22;7666;50.920;4.628;2023-09-18T12:18:55;24.30;99.90
15131;DHT22;7666;50.920;4.628;2023-09-18T12:21:42;24.50;99.90
15131;DHT22;7666;50.920;4.628;2023-09-18T12:24:32;24.70;99.90
15131;DHT22;7666;50.920;4.628;2023-09-18T12:27:18;24.90;99.90
15131;DHT22;7666;50.920;4.628;2023-09-18T12:30:05;24.80;99.90
15131;DHT22;7666;50.920;4.628;2023-09-18T12:32:52;24.90;99.90
15131;DHT22;7666;50.920;4.628;2023-09-18T12:35:40;24.90;99.90
15131;DHT22;7666;50.920;4.628;2023-09-18T12:38:26;24.80;99.90
15131;DHT22;7666;50.920;4.628;2023-09-18T12:41:13;24.80;99.90
15131;DHT22;7666;50.920;4.628;2023-09-18T12:44:00;24.80;99.90
15131;DHT22;7666;50.920;4.628;2023-09-18T12:46:46;24.80;99.90
15131;DHT22;7666;50.920;4.628;2023-09-18T12:49:35;24.80;99.90
15131;DHT22;7666;50.920;4.628;2023-09-18T12:52:22;24.90;99.90
15131;DHT22;7666;50.920;4.628;2023-09-18T12:55:19;24.90;99.90
15131;DHT22;7666;50.920;4.628;2023-09-18T12:58:06;24.90;99.90
15131;DHT22;7666;50.920;4.628;2023-09-18T13:00:54;24.90;99.90
15131;DHT22;7666;50.920;4.628;2023-09-18T13:03:44;25.00;99.90
15131;DHT22;7666;50.920;4.628;2023-09-18T13:06:30;25.00;99.90
15131;DHT22;7666;50.920;4.628;2023-09-18T13:09:18;25.10;99.90
15131;DHT22;7666;50.920;4.628;2023-09-18T13:12:06;25.10;99.90
15131;DHT22;7666;50.920;4.628;2023-09-18T13:15:02;25.20;99.90
15131;DHT22;7666;50.920;4.628;2023-09-18T13:17:50;25.20;99.90
15131;DHT22;7666;50.920;4.628;2023-09-18T13:20:37;25.20;99.90
15131;DHT22;7666;50.920;4.628;2023-09-18T13:23:32;25.10;99.90
15131;DHT22;7666;50.920;4.628;2023-09-18T13:26:18;25.10;99.90
15131;DHT22;7666;50.920;4.628;2023-09-18T13:29:04;25.20;99.90
15131;DHT22;7666;50.920;4.628;2023-09-18T13:31:53;25.10;99.90
15131;DHT22;7666;50.920;4.628;2023-09-18T13:34:39;25.00;99.90
15131;DHT22;7666;50.920;4.628;2023-09-18T13:37:25;25.00;99.90
15131;DHT22;7666;50.920;4.628;2023-09-18T13:40:12;24.90;99.90
15131;DHT22;7666;50.920;4.628;2023-09-18T13:42:59;24.80;99.90
15131;DHT22;7666;50.920;4.628;2023-09-18T13:45:45;24.70;99.90
15131;DHT22;7666;50.920;4.628;2023-09-18T13:48:31;24.80;99.90
15131;DHT22;7666;50.920;4.628;2023-09-18T13:51:18;24.80;99.90
15131;DHT22;7666;50.920;4.628;2023-09-18T13:54:04;24.80;99.90
15131;DHT22;7666;50.920;4.628;2023-09-18T13:56:53;24.80;99.90
15131;DHT22;7666;50.920;4.628;2023-09-18T13:59:41;24.80;99.90
15131;DHT22;7666;50.920;4.628;2023-09-18T14:02:28;24.80;99.90
15131;DHT22;7666;50.920;4.628;2023-09-18T14:05:14;24.60;99.90
15131;DHT22;7666;50.920;4.628;2023-09-18T14:08:00;24.60;99.90
15131;DHT22;7666;50.920;4.628;2023-09-18T14:10:46;24.90;99.90
15131;DHT22;7666;50.920;4.628;2023-09-18T14:13:32;25.00;99.90
15131;DHT22;7666;50.920;4.628;2023-09-18T14:16:18;24.90;99.90
15131;DHT22;7666;50.920;4.628;2023-09-18T14:19:04;24.90;99.90
15131;DHT22;7666;50.920;4.628;2023-09-18T14:21:51;24.80;99.90
15131;DHT22;7666;50.920;4.628;2023-09-18T14:24:37;24.60;99.90
15131;DHT22;7666;50.920;4.628;2023-09-18T14:27:23;24.40;99.90
15131;DHT22;7666;50.920;4.628;2023-09-18T14:30:10;24.30;99.90
15131;DHT22;7666;50.920;4.628;2023-09-18T14:32:56;24.20;99.90
15131;DHT22;7666;50.920;4.628;2023-09-18T14:35:42;24.10;99.90
15131;DHT22;7666;50.920;4.628;2023-09-18T14:38:28;24.10;99.90
15131;DHT22;7666;50.920;4.628;2023-09-18T14:41:14;24.00;99.90
15131;DHT22;7666;50.920;4.628;2023-09-18T14:44:00;23.90;99.90
15131;DHT22;7666;50.920;4.628;2023-09-18T14:46:45;23.80;99.90
15131;DHT22;7666;50.920;4.628;2023-09-18T14:49:31;23.70;99.90
15131;DHT22;7666;50.920;4.628;2023-09-18T14:52:18;23.50;99.90
15131;DHT22;7666;50.920;4.628;2023-09-18T14:55:05;23.40;99.90
15131;DHT22;7666;50.920;4.628;2023-09-18T14:57:51;23.30;99.90
15131;DHT22;7666;50.920;4.628;2023-09-18T15:00:37;22.70;99.90
15131;DHT22;7666;50.920;4.628;2023-09-18T15:03:23;21.10;99.90
15131;DHT22;7666;50.920;4.628;2023-09-18T15:06:12;20.30;99.90
15131;DHT22;7666;50.920;4.628;2023-09-18T15:08:58;20.00;99.90
15131;DHT22;7666;50.920;4.628;2023-09-18T15:11:44;19.90;99.90
15131;DHT22;7666;50.920;4.628;2023-09-18T15:14:31;20.00;99.90
15131;DHT22;7666;50.920;4.628;2023-09-18T15:17:17;20.30;99.90
15131;DHT22;7666;50.920;4.628;2023-09-18T15:20:05;20.50;99.90
15131;DHT22;7666;50.920;4.628;2023-09-18T15:22:52;20.70;99.90
15131;DHT22;7666;50.920;4.628;2023-09-18T15:25:38;20.90;99.90
15131;DHT22;7666;50.920;4.628;2023-09-18T15:28:24;20.90;99.90
15131;DHT22;7666;50.920;4.628;2023-09-18T15:31:12;21.10;99.90
15131;DHT22;7666;50.920;4.628;2023-09-18T15:33:58;20.90;99.90
15131;DHT22;7666;50.920;4.628;2023-09-18T15:36:44;20.90;99.90
15131;DHT22;7666;50.920;4.628;2023-09-18T15:39:31;20.90;99.90
15131;DHT22;7666;50.920;4.628;2023-09-18T15:42:18;21.10;99.90
15131;DHT22;7666;50.920;4.628;2023-09-18T15:45:08;21.10;99.90
15131;DHT22;7666;50.920;4.628;2023-09-18T15:47:56;21.10;99.90
15131;DHT22;7666;50.920;4.628;2023-09-18T15:50:43;21.10;99.90
15131;DHT22;7666;50.920;4.628;2023-09-18T15:53:29;21.00;99.90
15131;DHT22;7666;50.920;4.628;2023-09-18T15:56:15;20.90;99.90
15131;DHT22;7666;50.920;4.628;2023-09-18T15:59:02;20.90;99.90
15131;DHT22;7666;50.920;4.628;2023-09-18T16:01:49;20.90;99.90
15131;DHT22;7666;50.920;4.628;2023-09-18T16:04:35;21.00;99.90
15131;DHT22;7666;50.920;4.628;2023-09-18T16:07:26;21.10;99.90
15131;DHT22;7666;50.920;4.628;2023-09-18T16:10:12;21.10;99.90
15131;DHT22;7666;50.920;4.628;2023-09-18T16:12:58;21.20;99.90
15131;DHT22;7666;50.920;4.628;2023-09-18T16:15:45;21.30;99.90
15131;DHT22;7666;50.920;4.628;2023-09-18T16:18:31;21.20;99.90
15131;DHT22;7666;50.920;4.628;2023-09-18T16:21:17;21.30;99.90
15131;DHT22;7666;50.920;4.628;2023-09-18T16:24:03;21.20;99.90
15131;DHT22;7666;50.920;4.628;2023-09-18T16:26:53;21.10;99.90
15131;DHT22;7666;50.920;4.628;2023-09-18T16:29:40;20.90;99.90
15131;DHT22;7666;50.920;4.628;2023-09-18T16:32:28;20.80;99.90
15131;DHT22;7666;50.920;4.628;2023-09-18T16:35:14;20.70;99.90
15131;DHT22;7666;50.920;4.628;2023-09-18T16:38:01;20.60;99.90
15131;DHT22;7666;50.920;4.628;2023-09-18T16:40:47;20.50;99.90
15131;DHT22;7666;50.920;4.628;2023-09-18T16:43:33;20.50;99.90
15131;DHT22;7666;50.920;4.628;2023-09-18T16:46:19;20.50;99.90
15131;DHT22;7666;50.920;4.628;2023-09-18T16:49:05;20.30;99.90
15131;DHT22;7666;50.920;4.628;2023-09-18T16:51:53;20.20;99.90
15131;DHT22;7666;50.920;4.628;2023-09-18T16:54:39;20.10;99.90
15131;DHT22;7666;50.920;4.628;2023-09-18T16:57:26;20.00;99.90
15131;DHT22;7666;50.920;4.628;2023-09-18T17:00:12;20.00;99.90
15131;DHT22;7666;50.920;4.628;2023-09-18T17:02:58;20.00;99.90
15131;DHT22;7666;50.920;4.628;2023-09-18T17:05:44;19.90;99.90
15131;DHT22;7666;50.920;4.628;2023-09-18T17:08:31;19.90;99.90
15131;DHT22;7666;50.920;4.628;2023-09-18T17:11:16;19.90;99.90
15131;DHT22;7666;50.920;4.628;2023-09-18T17:14:02;19.90;99.90
15131;DHT22;7666;50.920;4.628;2023-09-18T17:16:48;19.80;99.90
15131;DHT22;7666;50.920;4.628;2023-09-18T17:19:35;19.70;99.90
15131;DHT22;7666;50.920;4.628;2023-09-18T17:22:21;19.70;99.90
15131;DHT22;7666;50.920;4.628;2023-09-18T17:25:07;19.70;99.90
15131;DHT22;7666;50.920;4.628;2023-09-18T17:27:56;19.60;99.90
15131;DHT22;7666;50.920;4.628;2023-09-18T17:30:42;19.60;99.90
15131;DHT22;7666;50.920;4.628;2023-09-18T17:33:28;19.50;99.90
15131;DHT22;7666;50.920;4.628;2023-09-18T17:36:14;19.50;99.90
15131;DHT22;7666;50.920;4.628;2023-09-18T17:39:00;19.50;99.90
15131;DHT22;7666;50.920;4.628;2023-09-18T17:41:46;19.40;99.90
15131;DHT22;7666;50.920;4.628;2023-09-18T17:44:32;19.40;99.90
15131;DHT22;7666;50.920;4.628;2023-09-18T17:47:20;19.30;99.90
15131;DHT22;7666;50.920;4.628;2023-09-18T17:50:07;19.30;99.90
15131;DHT22;7666;50.920;4.628;2023-09-18T17:52:53;19.30;99.90
15131;DHT22;7666;50.920;4.628;2023-09-18T17:55:39;19.30;99.90
15131;DHT22;7666;50.920;4.628;2023-09-18T17:58:24;19.20;99.90